Time;durP1;ratioP1;P1;durP2;ratioP2;P2;SDS_P1;SDS_P2;PMS_P1;PMS_P2;Temp;Humidity;BMP_temperature;BMP_pressure;BME280_temperature;BME280_humidity;BME280_pressure;Samples;Min_cycle;Max_cycle;Signal;HPM_P1;HPM_P2
2022/06/29 00:00:04;;;;;;;1.40;1.30;;;;;;;;;;2088228;28;20626;-81
2022/06/29 00:01:23;;;;;;;1.77;1.30;;;;;;;;;;2091188;28;20513;-76
2022/06/29 00:02:46;;;;;;;1.88;1.77;;;;;;;;;;2091589;28;20044;-80
2022/06/29 00:04:05;;;;;;;3.03;1.45;;;;;;;;;;2087938;28;20040;-76
2022/06/29 00:05:25;;;;;;;1.88;1.30;;;;;;;;;;2090971;28;20044;-76
2022/06/29 00:06:44;;;;;;;3.22;1.40;;;;;;;;;;2089995;28;20025;-76
2022/06/29 00:08:03;;;;;;;2.65;1.70;;;;;;;;;;2089845;28;20032;-75
2022/06/29 00:09:22;;;;;;;2.17;1.40;;;;;;;;;;2089277;28;20127;-75
2022/06/29 00:10:40;;;;;;;1.63;1.52;;;;;;;;;;2089153;28;20025;-77
2022/06/29 00:11:59;;;;;;;2.42;1.70;;;;;;;;;;2090764;28;20095;-78
2022/06/29 00:13:18;;;;;;;1.25;1.25;;;;;;;;;;2090189;28;20045;-76
2022/06/29 00:14:44;;;;;;;2.35;1.42;;;;;;;;;;2089659;28;20033;-76
2022/06/29 00:16:03;;;;;;;2.05;1.50;;;;;;;;;;2090719;28;20060;-76
2022/06/29 00:17:22;;;;;;;1.85;1.20;;;;;;;;;;2088337;28;20433;-76
2022/06/29 00:18:41;;;;;;;2.45;1.17;;;;;;;;;;2088791;28;20049;-77
2022/06/29 00:20:00;;;;;;;2.50;1.45;;;;;;;;;;2088293;28;20044;-76
2022/06/29 00:21:19;;;;;;;1.52;1.40;;;;;;;;;;2090589;28;20454;-76
2022/06/29 00:22:39;;;;;;;1.52;1.42;;;;;;;;;;2090649;28;20041;-77
2022/06/29 00:23:59;;;;;;;1.50;1.40;;;;;;;;;;2088017;28;20025;-79
2022/06/29 00:25:18;;;;;;;2.38;1.42;;;;;;;;;;2089785;28;20056;-75
2022/06/29 00:26:37;;;;;;;1.48;1.35;;;;;;;;;;2091564;28;20017;-76
2022/06/29 00:27:56;;;;;;;1.10;1.10;;;;;;;;;;2090692;28;20413;-76
2022/06/29 00:29:15;;;;;;;1.55;1.20;;;;;;;;;;2089244;28;20036;-75
2022/06/29 00:30:34;;;;;;;1.40;1.30;;;;;;;;;;2090064;28;20486;-77
2022/06/29 00:31:55;;;;;;;1.42;1.30;;;;;;;;;;2089799;28;20119;-75
2022/06/29 00:33:13;;;;;;;2.25;1.33;;;;;;;;;;2087357;28;20045;-78
2022/06/29 00:34:32;;;;;;;1.15;1.05;;;;;;;;;;2090376;28;20087;-76
2022/06/29 00:35:52;;;;;;;1.08;1.00;;;;;;;;;;2090800;28;20033;-75
2022/06/29 00:37:11;;;;;;;1.42;1.33;;;;;;;;;;2086208;28;20489;-76
2022/06/29 00:38:30;;;;;;;2.22;1.58;;;;;;;;;;2089483;28;20037;-75
2022/06/29 00:39:48;;;;;;;1.77;1.60;;;;;;;;;;2090877;28;20502;-76
2022/06/29 00:41:07;;;;;;;1.08;1.08;;;;;;;;;;2088987;28;20092;-77
2022/06/29 00:42:26;;;;;;;1.77;1.67;;;;;;;;;;2089176;28;20029;-75
2022/06/29 00:43:45;;;;;;;2.85;1.30;;;;;;;;;;2088203;28;20036;-76
2022/06/29 00:45:04;;;;;;;2.55;1.38;;;;;;;;;;2089144;28;20037;-77
2022/06/29 00:46:23;;;;;;;1.80;1.40;;;;;;;;;;2089878;28;20766;-75
2022/06/29 00:47:42;;;;;;;2.13;1.50;;;;;;;;;;2088627;28;20037;-75
2022/06/29 00:49:02;;;;;;;2.25;1.20;;;;;;;;;;2089266;28;20045;-75
2022/06/29 00:50:21;;;;;;;2.65;1.38;;;;;;;;;;2088854;28;20025;-77
2022/06/29 00:51:40;;;;;;;2.10;1.30;;;;;;;;;;2091061;28;20029;-75
2022/06/29 00:53:01;;;;;;;1.92;1.77;;;;;;;;;;2086091;28;21223;-75
2022/06/29 00:54:21;;;;;;;1.85;1.25;;;;;;;;;;2088718;28;20028;-75
2022/06/29 00:55:41;;;;;;;2.42;1.23;;;;;;;;;;2088719;28;20336;-76
2022/06/29 00:57:01;;;;;;;2.03;1.35;;;;;;;;;;2088935;28;20517;-76
2022/06/29 00:58:21;;;;;;;1.65;1.55;;;;;;;;;;2089979;28;20041;-75
2022/06/29 00:59:44;;;;;;;1.20;1.10;;;;;;;;;;2090981;28;20033;-75
2022/06/29 01:01:04;;;;;;;1.75;1.65;;;;;;;;;;2088879;28;20033;-75
2022/06/29 01:02:24;;;;;;;1.13;1.10;;;;;;;;;;2098042;28;20100;-75
2022/06/29 01:03:43;;;;;;;1.13;1.13;;;;;;;;;;2092425;28;20060;-77
2022/06/29 01:05:03;;;;;;;1.30;1.30;;;;;;;;;;2089089;28;20029;-76
2022/06/29 01:06:23;;;;;;;1.30;1.20;;;;;;;;;;2092164;28;20032;-76
2022/06/29 01:07:42;;;;;;;0.93;0.93;;;;;;;;;;2087806;28;20288;-75
2022/06/29 01:09:01;;;;;;;1.35;1.23;;;;;;;;;;2090125;28;20028;-79
2022/06/29 01:10:21;;;;;;;2.10;1.25;;;;;;;;;;2090942;28;20139;-76
2022/06/29 01:11:41;;;;;;;1.30;1.20;;;;;;;;;;2090371;28;20107;-75
2022/06/29 01:12:59;;;;;;;2.53;1.30;;;;;;;;;;2088769;28;20029;-77
2022/06/29 01:14:18;;;;;;;1.45;1.35;;;;;;;;;;2083938;28;20032;-77
2022/06/29 01:15:37;;;;;;;1.58;1.48;;;;;;;;;;2085962;28;20103;-77
2022/06/29 01:16:56;;;;;;;1.50;1.40;;;;;;;;;;2089705;28;20016;-75
2022/06/29 01:18:15;;;;;;;1.60;1.50;;;;;;;;;;2086115;28;20041;-76
2022/06/29 01:19:34;;;;;;;1.90;1.80;;;;;;;;;;2086800;28;20032;-77
2022/06/29 01:20:53;;;;;;;1.73;1.63;;;;;;;;;;2088811;28;20082;-76
2022/06/29 01:22:13;;;;;;;1.50;1.40;;;;;;;;;;2090219;28;20521;-75
2022/06/29 01:23:32;;;;;;;1.48;1.38;;;;;;;;;;2091953;28;20518;-75
2022/06/29 01:24:51;;;;;;;1.30;1.20;;;;;;;;;;2091416;28;20033;-76
2022/06/29 01:26:11;;;;;;;1.70;1.60;;;;;;;;;;2091010;28;20483;-75
2022/06/29 01:27:30;;;;;;;3.28;1.60;;;;;;;;;;2094659;28;20024;-76
2022/06/29 01:28:49;;;;;;;1.80;1.70;;;;;;;;;;2088145;28;20028;-76
2022/06/29 01:30:08;;;;;;;1.83;1.73;;;;;;;;;;2089026;28;20107;-76
2022/06/29 01:31:27;;;;;;;1.88;1.77;;;;;;;;;;2086820;28;20036;-76
2022/06/29 01:32:46;;;;;;;2.30;2.08;;;;;;;;;;2089334;28;20033;-76
2022/06/29 01:34:05;;;;;;;2.13;1.60;;;;;;;;;;2092928;28;20108;-76
2022/06/29 01:35:24;;;;;;;1.70;1.60;;;;;;;;;;2090723;28;20037;-76
2022/06/29 01:36:43;;;;;;;2.33;2.13;;;;;;;;;;2090404;28;20033;-76
2022/06/29 01:38:02;;;;;;;1.70;1.60;;;;;;;;;;2092521;28;20399;-76
2022/06/29 01:39:21;;;;;;;2.13;2.03;;;;;;;;;;2089182;28;20025;-78
2022/06/29 01:40:40;;;;;;;1.95;1.85;;;;;;;;;;2089583;28;20040;-76
2022/06/29 01:41:59;;;;;;;2.10;1.90;;;;;;;;;;2089918;28;20037;-76
2022/06/29 01:43:18;;;;;;;2.72;2.10;;;;;;;;;;2089922;28;20025;-76
2022/06/29 01:44:36;;;;;;;1.88;1.75;;;;;;;;;;2089606;28;20029;-76
2022/06/29 01:45:55;;;;;;;2.67;2.08;;;;;;;;;;2088642;28;20033;-76
2022/06/29 01:47:14;;;;;;;1.95;1.85;;;;;;;;;;2088633;28;20032;-77
2022/06/29 01:48:33;;;;;;;2.03;1.83;;;;;;;;;;2091978;28;20052;-77
2022/06/29 01:49:51;;;;;;;2.45;2.25;;;;;;;;;;2090562;28;20040;-80
2022/06/29 01:51:10;;;;;;;4.57;2.42;;;;;;;;;;2089001;28;20033;-77
2022/06/29 01:52:29;;;;;;;2.03;1.88;;;;;;;;;;2088438;28;20025;-78
2022/06/29 01:53:48;;;;;;;2.13;2.03;;;;;;;;;;2089254;28;20037;-76
2022/06/29 01:55:07;;;;;;;2.15;1.90;;;;;;;;;;2090985;28;20037;-75
2022/06/29 01:56:26;;;;;;;2.25;2.15;;;;;;;;;;2090686;28;20037;-77
2022/06/29 01:57:45;;;;;;;2.17;1.98;;;;;;;;;;2090781;28;21836;-76
2022/06/29 01:59:04;;;;;;;2.50;2.30;;;;;;;;;;2089797;28;20476;-76
2022/06/29 02:00:23;;;;;;;3.15;2.00;;;;;;;;;;2088032;28;20050;-75
2022/06/29 02:01:42;;;;;;;2.50;2.40;;;;;;;;;;2093417;28;20028;-75
2022/06/29 02:03:01;;;;;;;2.50;2.40;;;;;;;;;;2088937;28;20026;-75
2022/06/29 02:04:19;;;;;;;2.20;2.10;;;;;;;;;;2092001;28;20036;-75
2022/06/29 02:05:39;;;;;;;2.70;2.50;;;;;;;;;;2091327;28;20033;-77
2022/06/29 02:06:58;;;;;;;2.33;2.22;;;;;;;;;;2090277;28;20029;-76
2022/06/29 02:08:17;;;;;;;2.65;2.45;;;;;;;;;;2090980;28;20033;-75
2022/06/29 02:09:36;;;;;;;2.75;2.40;;;;;;;;;;2091849;28;20100;-76
2022/06/29 02:10:55;;;;;;;5.80;2.53;;;;;;;;;;2089977;28;20037;-75
2022/06/29 02:12:16;;;;;;;3.20;2.63;;;;;;;;;;2094466;28;20040;-76
2022/06/29 02:13:35;;;;;;;3.05;2.83;;;;;;;;;;2092744;28;20032;-79
2022/06/29 02:14:54;;;;;;;2.30;2.20;;;;;;;;;;2089539;28;20040;-76
2022/06/29 02:16:13;;;;;;;5.50;2.60;;;;;;;;;;2091245;28;20123;-79
2022/06/29 02:17:31;;;;;;;3.00;2.80;;;;;;;;;;2094669;28;20025;-76
2022/06/29 02:18:50;;;;;;;2.78;2.65;;;;;;;;;;2093069;28;20493;-75
2022/06/29 02:20:11;;;;;;;2.80;2.60;;;;;;;;;;2090583;28;20041;-75
2022/06/29 02:21:30;;;;;;;3.13;2.92;;;;;;;;;;2093023;28;20033;-75
2022/06/29 02:22:49;;;;;;;2.97;2.78;;;;;;;;;;2090836;28;20025;-75
2022/06/29 02:24:08;;;;;;;2.45;2.35;;;;;;;;;;2088816;28;20037;-74
2022/06/29 02:25:26;;;;;;;3.20;2.72;;;;;;;;;;2091077;28;20044;-75
2022/06/29 02:26:46;;;;;;;3.10;2.88;;;;;;;;;;2090650;28;20868;-75
2022/06/29 02:28:04;;;;;;;2.95;2.75;;;;;;;;;;2089544;28;20406;-75
2022/06/29 02:29:23;;;;;;;2.75;2.53;;;;;;;;;;2092322;28;20107;-76
2022/06/29 02:35:38;;;;;;;2.85;2.70;;;;;;;;;;2091589;28;20025;-76
2022/06/29 02:36:57;;;;;;;3.00;2.63;;;;;;;;;;2092427;28;20032;-79
2022/06/29 02:38:15;;;;;;;2.95;2.83;;;;;;;;;;2091022;28;20452;-76
2022/06/29 02:39:34;;;;;;;3.00;2.80;;;;;;;;;;2092477;28;20033;-76
2022/06/29 02:40:53;;;;;;;3.03;2.92;;;;;;;;;;2086227;28;20402;-75
2022/06/29 02:42:12;;;;;;;5.43;3.30;;;;;;;;;;2089366;28;20402;-75
2022/06/29 02:43:31;;;;;;;3.08;2.85;;;;;;;;;;2091271;28;20029;-75
2022/06/29 02:44:50;;;;;;;3.13;2.80;;;;;;;;;;2092502;28;20100;-77
2022/06/29 02:46:09;;;;;;;4.22;3.20;;;;;;;;;;2091264;28;20036;-75
2022/06/29 02:47:28;;;;;;;6.10;3.50;;;;;;;;;;2091380;28;20024;-76
2022/06/29 02:48:47;;;;;;;3.25;3.05;;;;;;;;;;2090238;28;20467;-75
2022/06/29 02:50:06;;;;;;;3.47;3.17;;;;;;;;;;2091811;28;20453;-75
2022/06/29 02:51:25;;;;;;;3.75;3.40;;;;;;;;;;2090059;28;20025;-75
2022/06/29 02:52:44;;;;;;;5.53;3.35;;;;;;;;;;2089816;28;20032;-75
2022/06/29 02:54:03;;;;;;;3.67;3.38;;;;;;;;;;2092478;28;20127;-76
2022/06/29 02:55:22;;;;;;;4.07;3.20;;;;;;;;;;2091231;28;20057;-76
2022/06/29 02:56:41;;;;;;;3.38;3.08;;;;;;;;;;2093270;28;20021;-76
2022/06/29 02:58:00;;;;;;;3.00;2.78;;;;;;;;;;2091732;28;20429;-75
2022/06/29 02:59:19;;;;;;;3.17;2.97;;;;;;;;;;2090574;28;20128;-76
2022/06/29 03:00:38;;;;;;;3.30;3.10;;;;;;;;;;2090386;28;20025;-78
2022/06/29 03:01:57;;;;;;;3.05;2.85;;;;;;;;;;2089944;28;20037;-75
2022/06/29 03:03:17;;;;;;;3.10;2.90;;;;;;;;;;2091152;28;20506;-77
2022/06/29 03:04:36;;;;;;;3.70;3.40;;;;;;;;;;2089387;28;20025;-75
2022/06/29 03:05:54;;;;;;;3.65;3.28;;;;;;;;;;2090581;28;20060;-75
2022/06/29 03:07:13;;;;;;;3.42;3.17;;;;;;;;;;2091257;28;20033;-76
2022/06/29 03:08:32;;;;;;;3.55;3.35;;;;;;;;;;2090546;28;20025;-75
2022/06/29 03:09:51;;;;;;;2.83;2.72;;;;;;;;;;2089378;28;20495;-75
2022/06/29 03:11:11;;;;;;;3.67;3.47;;;;;;;;;;2090270;28;20041;-75
2022/06/29 03:12:30;;;;;;;3.03;2.88;;;;;;;;;;2088596;28;20486;-75
2022/06/29 03:13:49;;;;;;;4.38;3.10;;;;;;;;;;2091022;28;20466;-75
2022/06/29 03:15:08;;;;;;;4.07;3.10;;;;;;;;;;2090462;28;20041;-77
2022/06/29 03:16:27;;;;;;;3.47;3.25;;;;;;;;;;2088481;28;21130;-78
2022/06/29 03:17:45;;;;;;;4.30;2.97;;;;;;;;;;2089316;28;20041;-76
2022/06/29 03:19:05;;;;;;;3.50;3.20;;;;;;;;;;2091672;28;20056;-76
2022/06/29 03:20:23;;;;;;;3.50;3.20;;;;;;;;;;2091318;28;20033;-78
2022/06/29 03:21:42;;;;;;;3.10;2.90;;;;;;;;;;2091306;28;20072;-75
2022/06/29 03:23:01;;;;;;;4.63;3.47;;;;;;;;;;2091802;28;20057;-78
2022/06/29 03:24:20;;;;;;;3.33;3.03;;;;;;;;;;2091641;28;20669;-76
2022/06/29 03:25:40;;;;;;;3.00;2.90;;;;;;;;;;2089662;28;20576;-77
2022/06/29 03:26:59;;;;;;;3.63;3.33;;;;;;;;;;2092113;28;20108;-77
2022/06/29 03:28:18;;;;;;;3.30;3.10;;;;;;;;;;2088995;28;20480;-76
2022/06/29 03:29:37;;;;;;;3.33;3.13;;;;;;;;;;2090976;28;20119;-79
2022/06/29 03:30:56;;;;;;;2.97;2.78;;;;;;;;;;2090243;28;20410;-76
2022/06/29 03:32:15;;;;;;;3.40;3.20;;;;;;;;;;2090691;28;20447;-76
2022/06/29 03:33:34;;;;;;;4.50;3.10;;;;;;;;;;2091585;28;20092;-77
2022/06/29 03:34:53;;;;;;;3.25;3.10;;;;;;;;;;2092427;28;20689;-76
2022/06/29 03:36:13;;;;;;;3.45;3.13;;;;;;;;;;2090781;28;20353;-78
2022/06/29 03:37:32;;;;;;;2.97;2.88;;;;;;;;;;2091764;28;20037;-75
2022/06/29 03:38:51;;;;;;;3.30;3.10;;;;;;;;;;2090527;28;20414;-77
2022/06/29 03:40:10;;;;;;;4.22;2.72;;;;;;;;;;2090338;28;20206;-76
2022/06/29 03:41:29;;;;;;;3.60;3.40;;;;;;;;;;2088107;28;20024;-76
2022/06/29 03:42:48;;;;;;;4.18;3.40;;;;;;;;;;2091747;28;20044;-76
2022/06/29 03:44:06;;;;;;;3.20;3.00;;;;;;;;;;2092598;28;20033;-75
2022/06/29 03:45:26;;;;;;;3.50;3.30;;;;;;;;;;2090082;28;20037;-76
2022/06/29 03:46:44;;;;;;;2.90;2.70;;;;;;;;;;2090870;28;20097;-75
2022/06/29 03:48:03;;;;;;;3.50;3.30;;;;;;;;;;2091572;28;20037;-75
2022/06/29 03:49:22;;;;;;;4.50;3.50;;;;;;;;;;2092683;28;20028;-75
2022/06/29 03:50:41;;;;;;;3.50;3.30;;;;;;;;;;2090302;28;20478;-75
2022/06/29 03:52:01;;;;;;;4.68;3.15;;;;;;;;;;2091813;28;20068;-75
2022/06/29 03:53:19;;;;;;;3.63;3.33;;;;;;;;;;2092902;28;20410;-76
2022/06/29 03:54:38;;;;;;;3.28;3.08;;;;;;;;;;2091128;28;20029;-75
2022/06/29 03:55:57;;;;;;;3.67;3.47;;;;;;;;;;2089693;28;20037;-75
2022/06/29 03:57:16;;;;;;;3.50;3.30;;;;;;;;;;2090225;28;20056;-75
2022/06/29 03:58:35;;;;;;;3.63;3.42;;;;;;;;;;2086048;28;20033;-75
2022/06/29 03:59:54;;;;;;;3.78;2.92;;;;;;;;;;2089917;28;20032;-77
2022/06/29 04:01:13;;;;;;;3.42;3.22;;;;;;;;;;2090976;28;20116;-75
2022/06/29 04:02:31;;;;;;;3.72;3.08;;;;;;;;;;2088086;28;20111;-74
2022/06/29 04:03:50;;;;;;;3.00;2.85;;;;;;;;;;2091530;28;20024;-76
2022/06/29 04:05:09;;;;;;;3.63;3.22;;;;;;;;;;2090023;28;20029;-76
2022/06/29 04:06:28;;;;;;;3.15;2.97;;;;;;;;;;2089728;28;20036;-76
2022/06/29 04:07:48;;;;;;;3.65;3.45;;;;;;;;;;2085705;28;20037;-78
2022/06/29 04:09:07;;;;;;;3.40;3.20;;;;;;;;;;2088440;28;20064;-76
2022/06/29 04:10:26;;;;;;;3.65;3.45;;;;;;;;;;2089827;28;20017;-76
2022/06/29 04:11:54;;;;;;;3.67;3.38;;;;;;;;;;2089816;28;20033;-76
2022/06/29 04:13:13;;;;;;;4.00;3.70;;;;;;;;;;2087594;28;20494;-77
2022/06/29 04:14:32;;;;;;;3.80;3.50;;;;;;;;;;2090103;28;20068;-75
2022/06/29 04:15:51;;;;;;;3.17;2.97;;;;;;;;;;2090607;28;20543;-75
2022/06/29 04:17:10;;;;;;;3.88;3.63;;;;;;;;;;2086776;28;20123;-75
2022/06/29 04:18:29;;;;;;;3.38;3.17;;;;;;;;;;2091958;28;20036;-76
2022/06/29 04:19:51;;;;;;;5.88;3.35;;;;;;;;;;2090062;28;20021;-75
2022/06/29 04:21:09;;;;;;;4.18;3.63;;;;;;;;;;2088046;28;20498;-74
2022/06/29 04:22:28;;;;;;;3.70;3.40;;;;;;;;;;2085259;28;20394;-75
2022/06/29 04:23:47;;;;;;;3.40;3.20;;;;;;;;;;2088576;28;20024;-77
2022/06/29 04:25:06;;;;;;;3.47;3.08;;;;;;;;;;2090794;28;20029;-78
2022/06/29 04:26:24;;;;;;;3.67;3.38;;;;;;;;;;2091758;28;20064;-77
2022/06/29 04:27:43;;;;;;;4.15;3.25;;;;;;;;;;2089692;28;20028;-77
2022/06/29 04:29:02;;;;;;;3.40;3.20;;;;;;;;;;2088114;28;20044;-74
2022/06/29 04:30:22;;;;;;;3.53;3.33;;;;;;;;;;2086375;28;20702;-74
2022/06/29 04:31:41;;;;;;;4.25;3.97;;;;;;;;;;2089760;28;20029;-74
2022/06/29 04:33:00;;;;;;;3.35;3.10;;;;;;;;;;2098177;28;20023;-75
2022/06/29 04:34:18;;;;;;;3.65;3.38;;;;;;;;;;2090854;28;20060;-75
2022/06/29 04:35:37;;;;;;;4.40;3.53;;;;;;;;;;2090429;28;20497;-75
2022/06/29 04:36:56;;;;;;;4.00;3.55;;;;;;;;;;2090687;28;20494;-76
2022/06/29 04:38:15;;;;;;;3.50;3.20;;;;;;;;;;2090867;28;20048;-74
2022/06/29 04:39:34;;;;;;;3.83;3.35;;;;;;;;;;2091554;28;20021;-76
2022/06/29 04:40:53;;;;;;;3.53;3.30;;;;;;;;;;2089448;28;20024;-78
2022/06/29 04:42:12;;;;;;;3.60;3.40;;;;;;;;;;2086944;28;20041;-75
2022/06/29 04:43:31;;;;;;;4.70;3.58;;;;;;;;;;2088737;28;20461;-75
2022/06/29 04:44:50;;;;;;;3.72;3.50;;;;;;;;;;2088910;28;20029;-75
2022/06/29 04:46:21;;;;;;;4.18;3.97;;;;;;;;;;2090987;28;20416;-76
2022/06/29 04:47:40;;;;;;;3.53;3.22;;;;;;;;;;2090433;28;20021;-74
2022/06/29 04:48:59;;;;;;;4.07;3.88;;;;;;;;;;2090191;28;20033;-77
2022/06/29 04:50:18;;;;;;;3.90;3.45;;;;;;;;;;2091838;28;20037;-75
2022/06/29 04:51:37;;;;;;;4.18;3.80;;;;;;;;;;2089516;28;20596;-75
2022/06/29 04:52:56;;;;;;;3.83;3.45;;;;;;;;;;2090332;28;20017;-74
2022/06/29 04:54:15;;;;;;;3.97;3.78;;;;;;;;;;2089443;28;20111;-75
2022/06/29 04:55:34;;;;;;;4.95;3.83;;;;;;;;;;2090567;28;20025;-76
2022/06/29 04:56:53;;;;;;;4.00;3.67;;;;;;;;;;2088583;28;20037;-75
2022/06/29 04:58:11;;;;;;;3.88;3.67;;;;;;;;;;2090564;28;20418;-75
2022/06/29 04:59:30;;;;;;;3.55;3.35;;;;;;;;;;2090553;28;20063;-75
2022/06/29 05:00:49;;;;;;;3.80;3.20;;;;;;;;;;2088399;28;20033;-74
2022/06/29 05:02:08;;;;;;;3.85;3.63;;;;;;;;;;2089185;28;20036;-74
2022/06/29 05:03:27;;;;;;;3.45;3.15;;;;;;;;;;2089483;28;20029;-75
2022/06/29 05:04:48;;;;;;;4.20;3.55;;;;;;;;;;2087414;28;20116;-75
2022/06/29 05:06:07;;;;;;;3.75;3.45;;;;;;;;;;2090649;28;20037;-73
2022/06/29 05:07:26;;;;;;;4.20;3.90;;;;;;;;;;2091065;28;20052;-74
2022/06/29 05:08:45;;;;;;;3.70;3.47;;;;;;;;;;2089420;28;20571;-75
2022/06/29 05:10:04;;;;;;;4.07;3.70;;;;;;;;;;2089977;28;20037;-74
2022/06/29 05:11:23;;;;;;;4.35;3.35;;;;;;;;;;2091244;28;20077;-74
2022/06/29 05:12:42;;;;;;;3.78;3.58;;;;;;;;;;2090455;28;20061;-74
2022/06/29 05:14:01;;;;;;;3.75;3.45;;;;;;;;;;2091895;28;20045;-74
2022/06/29 05:15:20;;;;;;;3.95;3.65;;;;;;;;;;2089850;28;20661;-74
2022/06/29 05:16:38;;;;;;;4.25;3.95;;;;;;;;;;2090181;28;20037;-74
2022/06/29 05:17:57;;;;;;;3.60;3.30;;;;;;;;;;2086642;28;20041;-77
2022/06/29 05:19:16;;;;;;;3.72;3.53;;;;;;;;;;2090826;28;20127;-77
2022/06/29 05:20:35;;;;;;;3.60;3.40;;;;;;;;;;2090503;28;20104;-78
2022/06/29 05:21:54;;;;;;;3.90;3.70;;;;;;;;;;2092444;28;20036;-74
2022/06/29 05:23:13;;;;;;;6.57;3.67;;;;;;;;;;2090807;28;20049;-74
2022/06/29 05:24:33;;;;;;;3.97;3.78;;;;;;;;;;2088857;28;20041;-75
2022/06/29 05:25:52;;;;;;;3.80;3.50;;;;;;;;;;2089970;28;20098;-75
2022/06/29 05:27:11;;;;;;;4.38;3.97;;;;;;;;;;2090406;28;20500;-75
2022/06/29 05:28:30;;;;;;;4.45;3.55;;;;;;;;;;2087378;28;20037;-75
2022/06/29 05:29:49;;;;;;;3.92;3.72;;;;;;;;;;2089291;28;20025;-85
2022/06/29 05:31:08;;;;;;;4.07;3.67;;;;;;;;;;2087740;28;20028;-82
2022/06/29 05:32:27;;;;;;;4.25;3.95;;;;;;;;;;2088207;28;20033;-86
2022/06/29 05:33:46;;;;;;;3.40;3.20;;;;;;;;;;2090376;28;20036;-85
2022/06/29 05:35:05;;;;;;;4.00;3.65;;;;;;;;;;2090934;28;20385;-82
2022/06/29 05:36:24;;;;;;;6.97;3.63;;;;;;;;;;2095636;28;20028;-83
2022/06/29 05:37:43;;;;;;;5.45;3.47;;;;;;;;;;2089431;28;20028;-83
2022/06/29 05:39:02;;;;;;;3.65;3.33;;;;;;;;;;2089721;28;20029;-83
2022/06/29 05:40:21;;;;;;;5.72;4.90;;;;;;;;;;2092240;28;20036;-82
2022/06/29 05:41:40;;;;;;;3.78;3.53;;;;;;;;;;2091390;28;20037;-83
2022/06/29 05:42:59;;;;;;;3.83;3.55;;;;;;;;;;2091950;28;20017;-83
2022/06/29 05:44:17;;;;;;;5.18;3.83;;;;;;;;;;2090731;28;20033;-82
2022/06/29 05:45:36;;;;;;;3.50;3.30;;;;;;;;;;2091778;28;20033;-81
2022/06/29 05:46:56;;;;;;;4.50;3.85;;;;;;;;;;2092107;28;20033;-79
2022/06/29 05:48:15;;;;;;;3.78;3.47;;;;;;;;;;2091479;28;20377;-85
2022/06/29 05:49:34;;;;;;;3.97;3.70;;;;;;;;;;2091437;28;20045;-75
2022/06/29 05:50:53;;;;;;;4.00;3.70;;;;;;;;;;2087529;28;20112;-74
2022/06/29 05:52:12;;;;;;;3.58;3.38;;;;;;;;;;2090123;28;20797;-73
2022/06/29 05:53:31;;;;;;;3.88;3.63;;;;;;;;;;2092812;28;20111;-74
2022/06/29 05:54:50;;;;;;;3.97;3.45;;;;;;;;;;2091107;28;20044;-75
2022/06/29 05:56:09;;;;;;;4.15;3.85;;;;;;;;;;2089915;28;20056;-73
2022/06/29 05:57:28;;;;;;;4.10;3.70;;;;;;;;;;2090956;28;20060;-72
2022/06/29 05:58:47;;;;;;;3.97;3.65;;;;;;;;;;2087682;28;20410;-72
2022/06/29 06:00:07;;;;;;;3.85;3.63;;;;;;;;;;2088651;28;20045;-73
2022/06/29 06:01:26;;;;;;;4.32;4.00;;;;;;;;;;2088270;28;20033;-73
2022/06/29 06:02:44;;;;;;;3.78;3.58;;;;;;;;;;2089970;28;20033;-74
2022/06/29 06:04:03;;;;;;;10.75;3.60;;;;;;;;;;2091855;28;20486;-73
2022/06/29 06:05:22;;;;;;;4.00;3.70;;;;;;;;;;2092139;28;20053;-73
2022/06/29 06:06:41;;;;;;;3.78;3.50;;;;;;;;;;2091751;28;20021;-73
2022/06/29 06:08:00;;;;;;;3.47;3.28;;;;;;;;;;2091456;28;20441;-73
2022/06/29 06:09:24;;;;;;;4.30;4.00;;;;;;;;;;2092042;28;20382;-73
2022/06/29 06:10:43;;;;;;;3.67;3.38;;;;;;;;;;2092379;28;20028;-73
2022/06/29 06:12:02;;;;;;;3.92;3.70;;;;;;;;;;2091576;28;20029;-73
2022/06/29 06:13:21;;;;;;;3.75;3.45;;;;;;;;;;2093173;28;20441;-73
2022/06/29 06:14:39;;;;;;;4.25;3.88;;;;;;;;;;2091375;28;20021;-73
2022/06/29 06:15:58;;;;;;;3.50;3.30;;;;;;;;;;2092450;28;20037;-73
2022/06/29 06:17:17;;;;;;;4.00;3.50;;;;;;;;;;2092541;28;20036;-73
2022/06/29 06:18:36;;;;;;;4.20;3.88;;;;;;;;;;2091650;28;20041;-76
2022/06/29 06:19:55;;;;;;;3.60;3.30;;;;;;;;;;2091956;28;20478;-73
2022/06/29 06:21:15;;;;;;;3.90;3.70;;;;;;;;;;2092497;28;20056;-73
2022/06/29 06:22:34;;;;;;;3.80;3.60;;;;;;;;;;2090723;28;20032;-72
2022/06/29 06:23:52;;;;;;;4.57;3.78;;;;;;;;;;2092506;28;20037;-73
2022/06/29 06:25:11;;;;;;;3.60;3.40;;;;;;;;;;2091592;28;20072;-73
2022/06/29 06:26:31;;;;;;;4.70;4.00;;;;;;;;;;2086749;28;20029;-74
2022/06/29 06:27:50;;;;;;;4.20;3.80;;;;;;;;;;2090704;28;20025;-73
2022/06/29 06:29:09;;;;;;;4.10;3.90;;;;;;;;;;2093163;28;20025;-73
2022/06/29 06:30:28;;;;;;;7.95;3.63;;;;;;;;;;2094730;28;20021;-72
2022/06/29 06:31:47;;;;;;;4.07;3.78;;;;;;;;;;2094015;28;20081;-72
2022/06/29 06:33:06;;;;;;;4.05;3.75;;;;;;;;;;2091926;28;20033;-73
2022/06/29 06:34:26;;;;;;;4.72;4.30;;;;;;;;;;2091526;28;20104;-73
2022/06/29 06:35:45;;;;;;;4.25;3.92;;;;;;;;;;2091177;28;20456;-73
2022/06/29 06:37:04;;;;;;;3.97;3.72;;;;;;;;;;2092650;28;20433;-72
2022/06/29 06:38:22;;;;;;;4.15;3.95;;;;;;;;;;2092262;28;20033;-72
2022/06/29 06:41:21;;;;;;;8.07;3.50;;;;;;;;;;2092595;28;20150;-73
2022/06/29 06:41:23;;;;;;;5.55;3.75;;;;;;;;;;2092474;28;20490;-73
2022/06/29 06:42:42;;;;;;;6.15;3.83;;;;;;;;;;2092464;28;20032;-73
2022/06/29 06:44:01;;;;;;;3.85;3.65;;;;;;;;;;2092099;28;20029;-74
2022/06/29 06:45:20;;;;;;;4.13;3.63;;;;;;;;;;2090808;28;20029;-76
2022/06/29 06:46:41;;;;;;;4.15;3.75;;;;;;;;;;2092120;28;20028;-73
2022/06/29 06:48:00;;;;;;;4.70;4.30;;;;;;;;;;2093173;28;20029;-74
2022/06/29 06:49:23;;;;;;;5.20;4.28;;;;;;;;;;2092852;28;20036;-75
2022/06/29 06:50:42;;;;;;;4.70;4.40;;;;;;;;;;2092229;28;20044;-75
2022/06/29 06:52:02;;;;;;;4.88;4.50;;;;;;;;;;2092045;28;20390;-75
2022/06/29 06:53:20;;;;;;;3.97;3.70;;;;;;;;;;2093649;28;20032;-74
2022/06/29 06:54:39;;;;;;;5.35;4.68;;;;;;;;;;2091492;28;20025;-80
2022/06/29 06:55:58;;;;;;;8.35;4.32;;;;;;;;;;2091625;28;20033;-75
2022/06/29 06:57:20;;;;;;;6.25;4.10;;;;;;;;;;2091282;28;20025;-75
2022/06/29 06:58:39;;;;;;;4.30;3.93;;;;;;;;;;2092662;28;20386;-76
2022/06/29 06:59:58;;;;;;;4.80;4.20;;;;;;;;;;2092015;28;20731;-76
2022/06/29 07:01:17;;;;;;;4.60;4.20;;;;;;;;;;2092956;28;20029;-76
2022/06/29 07:02:36;;;;;;;4.50;4.10;;;;;;;;;;2092337;28;20020;-76
2022/06/29 07:03:55;;;;;;;4.72;4.28;;;;;;;;;;2091670;28;20041;-75
2022/06/29 07:05:14;;;;;;;6.75;4.50;;;;;;;;;;2090983;28;20020;-75
2022/06/29 07:06:33;;;;;;;4.70;4.40;;;;;;;;;;2089261;28;20029;-75
2022/06/29 07:07:52;;;;;;;4.60;4.40;;;;;;;;;;2091167;28;20021;-76
2022/06/29 07:09:12;;;;;;;4.38;3.97;;;;;;;;;;2092945;28;20417;-75
2022/06/29 07:10:31;;;;;;;4.60;4.40;;;;;;;;;;2089307;28;20029;-77
2022/06/29 07:11:50;;;;;;;7.95;4.00;;;;;;;;;;2091528;28;20025;-76
2022/06/29 07:13:09;;;;;;;4.20;3.75;;;;;;;;;;2093574;28;20029;-75
2022/06/29 07:14:28;;;;;;;4.55;4.25;;;;;;;;;;2092359;28;20021;-78
2022/06/29 07:15:47;;;;;;;5.68;5.07;;;;;;;;;;2088897;28;20021;-76
2022/06/29 07:17:06;;;;;;;4.90;4.00;;;;;;;;;;2088868;28;20029;-75
2022/06/29 07:18:25;;;;;;;6.22;4.05;;;;;;;;;;2092134;28;20044;-76
2022/06/29 07:19:44;;;;;;;6.40;4.22;;;;;;;;;;2092046;28;20025;-79
2022/06/29 07:21:03;;;;;;;4.85;4.40;;;;;;;;;;2092641;28;20272;-76
2022/06/29 07:22:22;;;;;;;4.45;4.05;;;;;;;;;;2092507;28;20075;-75
2022/06/29 07:23:41;;;;;;;5.95;4.45;;;;;;;;;;2093207;28;20021;-76
2022/06/29 07:25:00;;;;;;;4.60;4.20;;;;;;;;;;2091076;28;20119;-76
2022/06/29 07:26:19;;;;;;;4.90;4.32;;;;;;;;;;2089833;28;20119;-76
2022/06/29 07:27:38;;;;;;;4.40;4.00;;;;;;;;;;2089375;28;20021;-78
2022/06/29 07:28:56;;;;;;;4.65;4.43;;;;;;;;;;2093121;28;20474;-76
2022/06/29 07:30:15;;;;;;;4.10;3.72;;;;;;;;;;2091086;28;20514;-76
2022/06/29 07:31:34;;;;;;;4.03;3.72;;;;;;;;;;2091413;28;20219;-76
2022/06/29 07:32:53;;;;;;;4.13;3.83;;;;;;;;;;2089140;28;20509;-75
2022/06/29 07:34:11;;;;;;;3.92;3.72;;;;;;;;;;2093031;28;20045;-76
2022/06/29 07:35:30;;;;;;;4.40;4.10;;;;;;;;;;2091411;28;20536;-76
2022/06/29 07:36:49;;;;;;;4.63;4.25;;;;;;;;;;2090989;28;20146;-76
2022/06/29 07:38:10;;;;;;;4.53;4.13;;;;;;;;;;2092162;28;20029;-76
2022/06/29 07:39:30;;;;;;;4.65;4.22;;;;;;;;;;2091769;28;20124;-76
2022/06/29 07:40:49;;;;;;;3.67;3.40;;;;;;;;;;2091121;28;20534;-75
2022/06/29 07:42:08;;;;;;;4.80;4.45;;;;;;;;;;2091799;28;20029;-76
2022/06/29 07:43:30;;;;;;;4.80;4.38;;;;;;;;;;2091020;28;20051;-76
2022/06/29 07:44:48;;;;;;;4.10;3.78;;;;;;;;;;2090948;28;20029;-77
2022/06/29 07:46:08;;;;;;;4.13;3.72;;;;;;;;;;2087676;28;20453;-77
2022/06/29 07:47:27;;;;;;;4.25;3.95;;;;;;;;;;2089539;28;20472;-76
2022/06/29 07:48:46;;;;;;;3.90;3.50;;;;;;;;;;2091630;28;20409;-76
2022/06/29 07:50:05;;;;;;;4.45;3.95;;;;;;;;;;2091622;28;20390;-76
2022/06/29 07:51:24;;;;;;;4.32;3.97;;;;;;;;;;2090832;28;20033;-75
2022/06/29 07:52:43;;;;;;;4.38;3.92;;;;;;;;;;2089491;28;20477;-75
2022/06/29 07:54:01;;;;;;;4.35;4.05;;;;;;;;;;2091225;28;20490;-77
2022/06/29 07:55:20;;;;;;;7.32;3.80;;;;;;;;;;2087525;28;20033;-76
2022/06/29 07:56:39;;;;;;;6.45;3.95;;;;;;;;;;2092384;28;20044;-77
2022/06/29 07:57:58;;;;;;;4.40;4.15;;;;;;;;;;2091766;28;20092;-76
2022/06/29 07:59:18;;;;;;;4.18;3.78;;;;;;;;;;2091457;28;20493;-78